Time;durP1;ratioP1;P1;durP2;ratioP2;P2;SDS_P1;SDS_P2;PMS_P1;PMS_P2;Temp;Humidity;BMP_temperature;BMP_pressure;BME280_temperature;BME280_humidity;BME280_pressure;Samples;Min_cycle;Max_cycle;Signal;HPM_P1;HPM_P2
2021/12/19 00:01:31;;;;;;;10.80;5.87;;;;;;;5.20;90.00;101280.80;1825367;78;21581;-68
2021/12/19 00:03:58;;;;;;;13.80;6.55;;;;;;;5.22;90.01;101276.22;1823207;78;21097;-70
2021/12/19 00:09:02;;;;;;;15.40;6.40;;;;;;;5.25;90.02;101266.73;1824813;78;21050;-70
2021/12/19 00:11:29;;;;;;;14.00;7.50;;;;;;;5.26;90.02;101264.46;1825766;78;20923;-71
2021/12/19 00:13:55;;;;;;;11.43;7.50;;;;;;;5.26;90.03;101256.53;1825688;78;20986;-70
2021/12/19 00:16:21;;;;;;;12.45;7.12;;;;;;;5.29;90.02;101262.91;1825770;78;21111;-70
2021/12/19 00:18:48;;;;;;;13.18;6.50;;;;;;;5.30;90.05;101257.98;1825942;78;21016;-70
2021/12/19 00:21:15;;;;;;;12.90;6.70;;;;;;;5.31;90.07;101247.75;1793562;77;21491;-70
2021/12/19 00:23:42;;;;;;;13.28;6.78;;;;;;;5.32;90.06;101237.55;1792995;79;21108;-70
2021/12/19 00:26:08;;;;;;;11.57;6.30;;;;;;;5.32;90.08;101224.33;1793183;80;21003;-70
2021/12/19 00:28:34;;;;;;;14.53;6.50;;;;;;;5.33;90.10;101215.44;1793018;79;21115;-70
2021/12/19 00:31:02;;;;;;;15.18;7.67;;;;;;;5.34;90.11;101204.39;1793160;80;21706;-70
2021/12/19 00:33:28;;;;;;;16.10;7.28;;;;;;;5.36;90.10;101208.59;1793201;80;21033;-70
2021/12/19 00:35:54;;;;;;;13.93;6.87;;;;;;;5.36;90.12;101199.34;1789974;79;21646;-70
2021/12/19 00:38:20;;;;;;;13.83;6.03;;;;;;;5.39;90.16;101205.70;1789661;80;20899;-70
2021/12/19 00:40:46;;;;;;;18.30;8.65;;;;;;;5.42;90.14;101216.52;1790132;80;21466;-70
2021/12/19 00:43:23;;;;;;;18.35;7.35;;;;;;;5.43;90.14;101221.71;1790154;80;20926;-71
2021/12/19 00:45:40;;;;;;;15.03;7.25;;;;;;;5.46;90.17;101207.40;1789418;80;21049;-70
2021/12/19 00:48:08;;;;;;;12.65;7.08;;;;;;;5.46;90.17;101216.19;1790159;80;21054;-70
2021/12/19 00:50:35;;;;;;;17.57;6.83;;;;;;;5.48;90.17;101223.55;1789568;80;21089;-70
2021/12/19 00:53:01;;;;;;;18.40;7.70;;;;;;;5.49;90.19;101217.27;1790091;80;21058;-71
2021/12/19 00:55:30;;;;;;;32.25;16.20;;;;;;;5.51;90.20;101208.75;1765693;79;20993;-70
2021/12/19 00:57:56;;;;;;;18.10;8.50;;;;;;;5.54;90.21;101216.45;1791301;79;21008;-71
2021/12/19 01:00:26;;;;;;;13.88;7.60;;;;;;;5.59;90.22;101208.17;1770752;81;21536;-71
2021/12/19 01:02:56;;;;;;;16.12;7.55;;;;;;;5.61;90.22;101201.42;1770746;81;21039;-70
2021/12/19 01:05:20;;;;;;;17.85;7.25;;;;;;;5.63;90.24;101203.48;1733654;81;21023;-70
2021/12/19 01:07:46;;;;;;;19.77;7.65;;;;;;;5.64;90.24;101190.12;1733952;82;20978;-70
2021/12/19 01:10:12;;;;;;;14.58;7.20;;;;;;;5.66;90.22;101184.72;1733804;82;20923;-70
2021/12/19 01:12:38;;;;;;;18.62;7.85;;;;;;;5.67;90.22;101187.70;1732869;82;20947;-70
2021/12/19 01:15:06;;;;;;;15.32;7.80;;;;;;;5.67;90.22;101185.91;1733651;82;21096;-70
2021/12/19 01:17:32;;;;;;;18.70;8.95;;;;;;;5.69;90.23;101184.48;1733505;82;21170;-70
2021/12/19 01:19:58;;;;;;;17.25;8.75;;;;;;;5.71;90.23;101174.59;1733153;82;20994;-70
2021/12/19 01:22:24;;;;;;;20.43;7.65;;;;;;;5.71;90.20;101164.02;1733589;82;20895;-71
2021/12/19 01:24:50;;;;;;;14.45;7.78;;;;;;;5.73;90.20;101159.47;1733861;82;21047;-70
2021/12/19 01:27:16;;;;;;;15.53;8.03;;;;;;;5.73;90.19;101154.17;1733882;82;21018;-70
2021/12/19 01:29:42;;;;;;;16.82;7.45;;;;;;;5.75;90.16;101145.62;1733735;82;21087;-70
2021/12/19 01:32:08;;;;;;;16.57;8.30;;;;;;;5.78;90.17;101149.34;1733956;82;20891;-71
2021/12/19 01:34:34;;;;;;;19.95;7.97;;;;;;;5.78;90.16;101149.34;1714193;82;20994;-71
2021/12/19 01:37:00;;;;;;;14.78;8.23;;;;;;;5.79;90.15;101141.77;1704188;84;21014;-70
2021/12/19 01:39:26;;;;;;;16.77;8.45;;;;;;;5.80;90.13;101139.50;1704405;84;20927;-70
2021/12/19 01:41:56;;;;;;;15.80;7.78;;;;;;;5.80;90.12;101128.43;1704442;84;21225;-70
2021/12/19 01:44:24;;;;;;;14.73;7.37;;;;;;;5.84;90.10;101127.70;1704018;84;21058;-71
2021/12/19 01:46:50;;;;;;;14.47;7.90;;;;;;;5.86;90.09;101121.35;1704267;84;21022;-70
2021/12/19 01:49:18;;;;;;;17.80;8.28;;;;;;;5.87;90.07;101111.61;1743236;82;21026;-70
2021/12/19 01:51:44;;;;;;;19.67;7.90;;;;;;;5.86;90.03;101103.30;1740325;82;21022;-70
2021/12/19 01:54:10;;;;;;;10.75;7.25;;;;;;;5.87;90.02;101089.11;1734497;82;21972;-70
2021/12/19 01:56:36;;;;;;;19.45;8.08;;;;;;;5.86;89.98;101076.36;1734553;82;20994;-70
2021/12/19 01:59:03;;;;;;;17.27;8.13;;;;;;;5.87;89.98;101076.73;1727906;82;21031;-70
2021/12/19 02:01:28;;;;;;;18.95;8.18;;;;;;;5.88;89.94;101065.62;1722479;83;21034;-70
2021/12/19 02:03:55;;;;;;;21.05;7.30;;;;;;;5.89;89.92;101062.88;1721857;83;21041;-71
2021/12/19 02:06:20;;;;;;;14.10;7.22;;;;;;;5.90;89.90;101067.69;1722281;83;21167;-70
2021/12/19 02:08:49;;;;;;;14.35;6.97;;;;;;;5.89;89.87;101062.88;1722442;83;20895;-71
2021/12/19 02:11:15;;;;;;;14.07;7.45;;;;;;;5.91;89.86;101058.79;1722441;83;21042;-71
2021/12/19 02:13:41;;;;;;;12.43;5.97;;;;;;;5.92;89.80;101064.42;1722468;83;21064;-71
2021/12/19 02:16:07;;;;;;;14.60;6.35;;;;;;;5.94;89.78;101037.36;1722438;83;21066;-70
2021/12/19 02:18:33;;;;;;;18.52;7.70;;;;;;;5.98;89.71;101046.73;1722430;83;21625;-71
2021/12/19 02:20:59;;;;;;;13.32;6.37;;;;;;;6.00;89.65;101035.53;1721362;81;20986;-71
2021/12/19 02:23:27;;;;;;;19.02;6.95;;;;;;;5.99;89.57;101035.16;1722303;83;21070;-70
2021/12/19 02:25:55;;;;;;;21.87;7.05;;;;;;;6.01;89.54;101034.57;1722093;83;21082;-70
2021/12/19 02:28:21;;;;;;;15.00;5.80;;;;;;;5.99;89.47;101043.10;1722412;83;21049;-70
2021/12/19 02:30:47;;;;;;;13.35;5.62;;;;;;;5.99;89.41;101043.10;1722319;83;21812;-70
2021/12/19 02:33:18;;;;;;;20.02;6.40;;;;;;;6.00;89.37;101039.02;1722201;83;21519;-70
2021/12/19 02:35:49;;;;;;;;;;;;;;;5.99;89.30;101025.89;1724688;82;21030;-71
2021/12/19 02:39:07;;;;;;;10.55;4.87;;;;;;;5.98;89.27;101017.63;1722271;83;20196;-71
2021/12/19 02:49:25;;;;;;;16.00;4.42;;;;;;;5.99;88.87;101015.31;1722282;83;21078;-71
2021/12/19 02:51:52;;;;;;;14.13;4.37;;;;;;;5.99;88.68;101012.66;1721757;83;21003;-70
2021/12/19 02:54:18;;;;;;;15.20;5.20;;;;;;;6.03;88.58;101000.86;1681441;85;21037;-70
2021/12/19 02:56:44;;;;;;;13.28;4.15;;;;;;;6.03;88.42;101002.19;1681032;85;21852;-70
2021/12/19 02:59:12;;;;;;;11.33;3.98;;;;;;;6.03;88.31;100997.73;1689923;84;21534;-70
2021/12/19 03:01:38;;;;;;;10.20;4.28;;;;;;;6.02;88.16;100980.63;1693510;84;21023;-70
2021/12/19 03:04:06;;;;;;;13.05;4.50;;;;;;;6.02;88.03;100991.23;1693399;84;21567;-71
2021/12/19 03:06:32;;;;;;;11.12;4.05;;;;;;;6.00;87.91;100998.47;1693853;83;21010;-71
2021/12/19 03:09:04;;;;;;;13.53;4.47;;;;;;;5.98;87.82;100987.17;1722175;83;21806;-70
2021/12/19 03:19:23;;;;;;;12.55;4.25;;;;;;;5.93;87.46;100962.87;1722234;83;21125;-70
2021/12/19 03:21:49;;;;;;;10.68;4.47;;;;;;;5.93;87.37;100960.23;1715328;83;21179;-70
2021/12/19 03:24:15;;;;;;;15.05;5.20;;;;;;;5.92;87.29;100954.57;1722651;83;21050;-70
2021/12/19 03:26:41;;;;;;;14.40;5.12;;;;;;;5.91;87.20;100951.59;1698872;83;20990;-70
2021/12/19 03:29:07;;;;;;;9.75;3.52;;;;;;;5.89;87.09;100952.18;1693619;83;20883;-71
2021/12/19 03:31:32;;;;;;;10.35;3.58;;;;;;;5.89;86.97;100946.89;1675771;85;20982;-71
2021/12/19 03:33:59;;;;;;;11.55;3.45;;;;;;;5.88;86.86;100933.28;1675897;85;21217;-71
2021/12/19 03:36:27;;;;;;;11.70;3.80;;;;;;;5.89;86.73;100931.01;1675942;85;21074;-71
2021/12/19 03:38:57;;;;;;;9.90;3.22;;;;;;;5.89;86.59;100935.82;1675944;85;21002;-71
2021/12/19 03:41:22;;;;;;;13.25;3.92;;;;;;;5.88;86.51;100950.49;1675487;84;21563;-71
2021/12/19 03:43:49;;;;;;;12.95;3.95;;;;;;;5.87;86.42;100932.47;1676168;83;21029;-70
2021/12/19 03:46:15;;;;;;;23.45;8.68;;;;;;;5.86;86.36;100937.40;1675939;85;21763;-71
2021/12/19 03:48:41;;;;;;;15.00;3.58;;;;;;;5.87;86.29;100940.89;1675391;85;21053;-71
2021/12/19 03:51:07;;;;;;;15.53;3.95;;;;;;;5.87;86.20;100931.63;1684255;83;21137;-71
2021/12/19 03:53:33;;;;;;;15.83;5.80;;;;;;;5.87;86.12;100944.86;1675801;85;21037;-70
2021/12/19 03:55:59;;;;;;;12.80;4.85;;;;;;;5.87;86.06;100939.57;1675655;85;20986;-71
2021/12/19 03:58:25;;;;;;;12.73;4.35;;;;;;;5.87;86.00;100954.12;1681694;82;21047;-70
2021/12/19 04:00:52;;;;;;;9.73;3.35;;;;;;;5.87;85.93;100948.36;1696689;84;20912;-70
2021/12/19 04:03:20;;;;;;;13.28;3.80;;;;;;;5.88;85.89;100936.78;1707467;82;21067;-70
2021/12/19 04:05:47;;;;;;;9.75;3.20;;;;;;;5.89;85.82;100932.33;1781251;80;20995;-70
2021/12/19 04:08:13;;;;;;;11.85;3.27;;;;;;;5.88;85.77;100934.12;1781287;80;21019;-70
2021/12/19 04:10:39;;;;;;;12.43;3.65;;;;;;;5.90;85.71;100923.43;1781260;80;21722;-70
2021/12/19 04:13:07;;;;;;;8.28;2.58;;;;;;;5.88;85.62;100906.81;1781082;80;20972;-70
2021/12/19 04:15:33;;;;;;;8.98;3.65;;;;;;;5.88;85.50;100913.44;1783369;79;21046;-71
2021/12/19 04:17:59;;;;;;;19.48;6.10;;;;;;;5.85;85.44;100905.24;1786335;79;21637;-70
2021/12/19 04:20:25;;;;;;;24.45;7.25;;;;;;;5.85;85.40;100905.72;1785253;78;20904;-71
2021/12/19 04:22:51;;;;;;;18.20;4.83;;;;;;;5.85;85.33;100900.42;1739358;81;21079;-71
2021/12/19 04:25:18;;;;;;;13.38;4.17;;;;;;;5.86;85.28;100904.80;1739409;81;20996;-70
2021/12/19 04:27:44;;;;;;;9.53;3.58;;;;;;;5.84;85.23;100908.03;1739521;81;21630;-70
2021/12/19 04:30:13;;;;;;;12.07;3.85;;;;;;;5.86;85.17;100923.32;1739320;82;21023;-70
2021/12/19 04:32:43;;;;;;;14.10;4.93;;;;;;;5.87;85.14;100935.59;1739693;81;21479;-71
2021/12/19 04:35:09;;;;;;;7.33;3.00;;;;;;;5.86;85.10;100924.64;1743227;79;21224;-71
2021/12/19 04:51:08;;;;;;;8.20;3.10;;;;;;;5.94;84.80;100939.42;1781494;79;21091;-71
2021/12/19 05:01:34;;;;;;;9.23;2.90;;;;;;;5.96;84.55;100928.20;1781495;80;21171;-71
2021/12/19 05:03:50;;;;;;;7.53;2.33;;;;;;;5.96;84.51;100922.91;1776932;80;21503;-71
2021/12/19 05:06:31;;;;;;;7.50;2.80;;;;;;;5.97;84.39;100909.56;1754514;79;20983;-70
2021/12/19 05:14:15;;;;;;;10.15;3.55;;;;;;;5.96;84.17;100919.78;1791314;79;21112;-70
2021/12/19 05:16:40;;;;;;;12.65;3.50;;;;;;;5.94;84.08;100911.63;1797017;79;21473;-70
2021/12/19 05:19:17;;;;;;;8.43;3.52;;;;;;;5.95;83.97;100910.64;1796910;79;21511;-70
2021/12/19 05:21:36;;;;;;;10.58;3.62;;;;;;;5.96;83.91;100913.17;1787067;79;21070;-70
2021/12/19 05:26:27;;;;;;;6.90;2.77;;;;;;;5.92;83.79;100901.63;1788213;79;21086;-70
2021/12/19 05:28:53;;;;;;;10.72;3.00;;;;;;;5.91;83.73;100905.27;1797251;79;20972;-70
2021/12/19 05:31:20;;;;;;;10.18;3.65;;;;;;;5.90;83.70;100900.45;1797555;79;20880;-70
2021/12/19 05:33:46;;;;;;;12.07;3.42;;;;;;;5.90;83.68;100885.05;1797571;79;20976;-70
2021/12/19 05:44:11;;;;;;;9.05;3.02;;;;;;;5.87;83.65;100878.22;1797329;79;21094;-70
2021/12/19 05:45:12;;;;;;;8.93;3.42;;;;;;;5.83;83.56;100884.70;1797773;79;21046;-71
2021/12/19 05:46:43;;;;;;;11.38;2.90;;;;;;;5.79;83.55;100879.30;1792681;79;21442;-71
2021/12/19 05:49:09;;;;;;;18.45;6.40;;;;;;;5.79;83.52;100881.09;1797653;79;21654;-71
2021/12/19 05:51:36;;;;;;;10.30;4.55;;;;;;;5.78;83.52;100882.05;1749054;79;21570;-71
2021/12/19 05:54:02;;;;;;;13.58;3.55;;;;;;;5.76;83.51;100873.42;1777297;79;20995;-70
2021/12/19 05:56:28;;;;;;;10.40;5.00;;;;;;;5.75;83.50;100861.14;1793414;79;21087;-71
2021/12/19 05:58:55;;;;;;;25.08;5.87;;;;;;;5.73;83.48;100855.16;1797599;79;21536;-70
2021/12/19 06:01:21;;;;;;;11.25;3.77;;;;;;;5.71;83.46;100843.84;1796775;79;21058;-70
2021/12/19 06:03:47;;;;;;;36.08;9.68;;;;;;;5.69;83.45;100852.41;1793211;79;21800;-70
2021/12/19 06:06:13;;;;;;;14.38;4.83;;;;;;;5.69;83.45;100859.02;1786940;80;21643;-70
2021/12/19 06:08:39;;;;;;;6.58;2.60;;;;;;;5.68;83.48;100858.66;1787017;80;20899;-70
2021/12/19 06:11:05;;;;;;;9.28;3.55;;;;;;;5.68;83.49;100849.39;1786998;80;21596;-70
2021/12/19 06:13:31;;;;;;;14.35;5.03;;;;;;;5.68;83.47;100859.50;1786957;80;20959;-70
2021/12/19 06:15:57;;;;;;;13.55;4.45;;;;;;;5.68;83.48;100859.98;1781712;80;21934;-71
2021/12/19 06:18:23;;;;;;;8.08;2.95;;;;;;;5.69;83.49;100864.31;1761939;79;21497;-70
2021/12/19 06:20:50;;;;;;;11.03;3.80;;;;;;;5.70;83.49;100864.16;1780950;80;21511;-70
2021/12/19 06:23:16;;;;;;;11.53;4.80;;;;;;;5.71;83.48;100851.78;1781169;80;20991;-71
2021/12/19 06:25:45;;;;;;;7.05;2.95;;;;;;;5.71;83.49;100847.81;1781840;79;21081;-70
2021/12/19 06:28:09;;;;;;;7.95;3.12;;;;;;;5.69;83.49;100840.50;1780947;80;21613;-70
2021/12/19 06:30:35;;;;;;;6.60;2.55;;;;;;;5.70;83.49;100849.61;1785257;79;20891;-71
2021/12/19 06:33:01;;;;;;;10.50;4.55;;;;;;;5.70;83.49;100842.19;1786885;80;20898;-71
2021/12/19 06:35:29;;;;;;;9.53;2.80;;;;;;;5.69;83.48;100842.66;1786443;80;20958;-70
2021/12/19 06:37:55;;;;;;;4.80;2.05;;;;;;;5.67;83.48;100847.70;1786681;80;21058;-71
2021/12/19 06:40:23;;;;;;;5.65;2.30;;;;;;;5.67;83.50;100849.02;1786321;80;21163;-70
2021/12/19 06:42:49;;;;;;;6.37;2.47;;;;;;;5.65;83.47;100845.69;1787001;80;20983;-70
2021/12/19 06:45:15;;;;;;;5.80;2.12;;;;;;;5.64;83.45;100850.61;1793786;79;21638;-71
2021/12/19 06:47:41;;;;;;;10.78;2.92;;;;;;;5.64;83.46;100850.61;1794382;79;20887;-71
2021/12/19 06:50:07;;;;;;;9.80;2.85;;;;;;;5.64;83.46;100843.99;1781314;80;20966;-70
2021/12/19 06:52:34;;;;;;;4.35;1.60;;;;;;;5.64;83.48;100843.99;1781468;80;21143;-71
2021/12/19 06:55:00;;;;;;;7.78;2.40;;;;;;;5.62;83.50;100844.62;1781554;79;21003;-71
2021/12/19 06:57:26;;;;;;;6.55;2.90;;;;;;;5.62;83.50;100843.30;1797657;79;21488;-70
2021/12/19 06:59:52;;;;;;;6.35;3.67;;;;;;;5.60;83.51;100843.89;1800242;79;20852;-70
2021/12/19 07:02:18;;;;;;;13.30;5.85;;;;;;;5.58;83.52;100841.39;1802978;79;20991;-70
2021/12/19 07:04:44;;;;;;;11.93;4.90;;;;;;;5.53;83.54;100840.91;1803444;79;21633;-70
2021/12/19 07:07:10;;;;;;;7.90;3.27;;;;;;;5.50;83.58;100842.02;1792977;79;21010;-70
2021/12/19 07:09:36;;;;;;;6.62;2.72;;;;;;;5.45;83.61;100840.22;1789687;80;21037;-70
2021/12/19 07:12:03;;;;;;;8.10;3.02;;;;;;;5.41;83.64;100842.79;1789715;80;21086;-70
2021/12/19 07:14:29;;;;;;;5.62;2.20;;;;;;;5.38;83.68;100836.40;1789660;80;20978;-70
2021/12/19 07:16:55;;;;;;;8.85;2.47;;;;;;;5.32;83.73;100825.02;1796659;79;21756;-71
2021/12/19 07:19:21;;;;;;;6.85;3.58;;;;;;;5.32;83.77;100830.78;1802799;79;20865;-70
2021/12/19 07:21:47;;;;;;;8.03;3.75;;;;;;;5.32;83.84;100833.42;1803311;79;20888;-71
2021/12/19 07:24:12;;;;;;;7.60;2.98;;;;;;;5.30;83.88;100823.47;1801356;79;20857;-71
2021/12/19 07:26:38;;;;;;;9.65;4.40;;;;;;;5.31;83.90;100829.94;1802991;78;21260;-71
2021/12/19 07:29:04;;;;;;;9.35;3.87;;;;;;;5.33;83.94;100823.21;1802869;79;21094;-70
2021/12/19 07:31:31;;;;;;;7.00;2.98;;;;;;;5.36;83.96;100823.80;1803004;79;20991;-70
2021/12/19 07:33:57;;;;;;;9.13;4.00;;;;;;;5.38;83.97;100825.83;1802992;79;20984;-70
2021/12/19 07:36:26;;;;;;;8.50;3.95;;;;;;;5.40;84.00;100825.71;1801577;79;20967;-70
2021/12/19 07:39:04;;;;;;;6.58;3.80;;;;;;;5.39;84.00;100820.90;1792424;79;21006;-70
2021/12/19 07:41:26;;;;;;;10.58;4.87;;;;;;;5.39;84.00;100822.22;1791022;79;21171;-70
2021/12/19 07:43:52;;;;;;;9.68;3.42;;;;;;;5.38;84.00;100827.14;1784432;79;20883;-70
2021/12/19 07:46:18;;;;;;;10.93;5.20;;;;;;;5.41;83.99;100825.59;1792699;80;20990;-70
2021/12/19 07:48:44;;;;;;;13.68;4.70;;;;;;;5.40;83.96;100820.42;1792665;80;20891;-70
2021/12/19 07:51:10;;;;;;;13.38;4.87;;;;;;;5.40;83.96;100821.74;1792846;80;21065;-70
2021/12/19 07:53:35;;;;;;;18.52;7.90;;;;;;;5.40;83.93;100823.91;1792601;80;21929;-70
2021/12/19 07:56:01;;;;;;;13.30;5.35;;;;;;;5.39;83.95;100823.55;1796010;79;21054;-70
2021/12/19 07:58:27;;;;;;;13.35;5.67;;;;;;;5.39;83.93;100816.93;1802867;79;20872;-70
2021/12/19 08:00:53;;;;;;;14.73;6.10;;;;;;;5.39;83.91;100822.22;1798449;79;21151;-70
2021/12/19 08:03:20;;;;;;;9.78;3.37;;;;;;;5.38;83.94;100813.92;1797275;79;21507;-70
2021/12/19 08:05:46;;;;;;;6.03;2.58;;;;;;;5.36;83.91;100813.22;1797581;79;21141;-70
2021/12/19 08:08:16;;;;;;;7.97;3.22;;;;;;;5.33;83.90;100808.19;1790021;79;21034;-70
2021/12/19 08:13:07;;;;;;;11.65;4.05;;;;;;;5.32;83.91;100815.76;1780607;79;20908;-70
2021/12/19 08:15:33;;;;;;;15.45;5.53;;;;;;;5.32;83.92;100822.37;1747131;79;21011;-69
2021/12/19 08:17:59;;;;;;;7.28;3.12;;;;;;;5.31;83.91;100822.00;1708471;82;21309;-70
2021/12/19 08:20:26;;;;;;;6.37;2.98;;;;;;;5.31;83.91;100819.36;1708255;82;21551;-70
2021/12/19 08:22:56;;;;;;;8.55;2.87;;;;;;;5.30;83.92;100819.02;1739764;81;21007;-70
2021/12/19 08:25:23;;;;;;;7.58;3.27;;;;;;;5.28;83.94;100813.48;1772379;79;21042;-70
2021/12/19 08:27:49;;;;;;;10.72;4.05;;;;;;;5.26;83.97;100811.46;1783228;79;21062;-70
2021/12/19 08:30:15;;;;;;;11.80;3.98;;;;;;;5.26;83.98;100804.38;1787050;80;21735;-70
2021/12/19 08:32:41;;;;;;;6.65;2.70;;;;;;;5.26;83.99;100800.41;1786869;80;21054;-70
2021/12/19 08:35:08;;;;;;;3.70;1.50;;;;;;;5.27;83.99;100789.35;1787127;80;21034;-70
2021/12/19 08:37:34;;;;;;;3.05;1.75;;;;;;;5.26;84.03;100788.51;1771328;80;21030;-70
2021/12/19 08:40:00;;;;;;;7.40;2.85;;;;;;;5.26;84.04;100796.44;1786327;79;20995;-70
2021/12/19 08:42:28;;;;;;;4.12;1.85;;;;;;;5.28;84.04;100802.91;1793540;79;21593;-70
2021/12/19 08:44:54;;;;;;;1.35;1.12;;;;;;;5.29;84.03;100804.11;1786901;80;20982;-70
2021/12/19 08:47:20;;;;;;;6.85;4.28;;;;;;;5.30;84.04;100816.86;1787123;80;21472;-70
2021/12/19 08:49:46;;;;;;;7.72;2.83;;;;;;;5.30;84.07;100811.09;1786742;80;20990;-70
2021/12/19 08:52:12;;;;;;;7.87;3.62;;;;;;;5.34;84.07;100804.59;1771361;80;20860;-70
2021/12/19 08:54:38;;;;;;;3.33;1.77;;;;;;;5.36;84.07;100798.68;1739409;82;21092;-70
2021/12/19 08:57:05;;;;;;;4.53;1.50;;;;;;;5.37;84.08;100796.40;1739597;81;21522;-70
2021/12/19 08:59:31;;;;;;;7.33;2.98;;;;;;;5.36;84.04;100786.78;1766432;79;21014;-70
2021/12/19 09:02:01;;;;;;;16.25;8.18;;;;;;;5.37;84.06;100786.30;1787078;80;20974;-70
2021/12/19 09:04:28;;;;;;;5.33;2.62;;;;;;;5.38;84.06;100790.13;1784141;79;21047;-70
2021/12/19 09:06:59;;;;;;;9.73;5.50;;;;;;;5.38;84.04;100800.70;1785227;79;21031;-70
2021/12/19 09:09:25;;;;;;;3.92;2.00;;;;;;;5.39;84.04;100799.74;1787037;80;21118;-70
2021/12/19 09:11:52;;;;;;;15.72;6.85;;;;;;;5.40;84.03;100798.78;1788044;79;20976;-70
2021/12/19 09:14:18;;;;;;;29.80;15.45;;;;;;;5.39;84.02;100795.78;1796792;79;21036;-70
2021/12/19 09:16:44;;;;;;;13.15;6.58;;;;;;;5.40;84.02;100792.66;1788399;79;21006;-70
2021/12/19 09:19:10;;;;;;;19.73;10.75;;;;;;;5.42;84.03;100806.58;1794149;79;21075;-70
2021/12/19 09:21:36;;;;;;;9.35;3.10;;;;;;;5.45;84.01;100799.22;1797475;79;20983;-70
2021/12/19 09:24:03;;;;;;;17.25;5.83;;;;;;;5.43;83.99;100795.88;1797355;79;20991;-70
2021/12/19 09:26:29;;;;;;;8.50;3.20;;;;;;;5.42;84.00;100791.55;1797582;79;21038;-70
2021/12/19 09:28:55;;;;;;;18.80;8.43;;;;;;;5.42;84.00;100798.16;1795578;79;20913;-70
2021/12/19 09:31:24;;;;;;;13.60;5.47;;;;;;;5.41;84.01;100785.93;1781737;80;21200;-70
2021/12/19 09:33:50;;;;;;;6.55;3.37;;;;;;;5.40;84.01;100780.27;1781514;80;20991;-70
2021/12/19 09:36:16;;;;;;;9.65;2.47;;;;;;;5.40;84.02;100780.27;1781401;80;21007;-70
2021/12/19 09:38:43;;;;;;;9.63;3.35;;;;;;;5.41;84.03;100772.70;1781484;80;20871;-70
2021/12/19 09:41:13;;;;;;;17.48;5.47;;;;;;;5.42;84.03;100778.80;1781618;80;21035;-70
2021/12/19 09:43:44;;;;;;;10.80;4.45;;;;;;;5.44;84.03;100779.05;1775538;79;21990;-70
2021/12/19 09:46:21;;;;;;;12.60;4.55;;;;;;;5.46;84.05;100774.46;1797093;79;21046;-70
2021/12/19 09:48:48;;;;;;;11.85;5.58;;;;;;;5.48;84.06;100773.03;1796850;79;21082;-70
2021/12/19 09:51:16;;;;;;;8.85;3.62;;;;;;;5.49;84.08;100766.27;1797741;79;21016;-70
2021/12/19 09:53:42;;;;;;;12.63;5.10;;;;;;;5.49;84.07;100758.81;1781222;79;20995;-70
2021/12/19 09:56:08;;;;;;;10.10;3.85;;;;;;;5.48;84.08;100755.36;1760775;79;21074;-70
2021/12/19 09:58:34;;;;;;;12.82;4.58;;;;;;;5.48;84.08;100761.97;1710406;82;21476;-70
2021/12/19 10:01:04;;;;;;;11.85;6.22;;;;;;;5.47;84.06;100757.63;1763071;79;21027;-70
2021/12/19 10:03:30;;;;;;;9.75;3.58;;;;;;;5.47;84.06;100758.95;1802394;79;21011;-70
2021/12/19 10:06:22;;;;;;;7.35;3.70;;;;;;;5.46;84.06;100741.88;1792949;79;21652;-70
2021/12/19 10:08:53;;;;;;;11.10;4.65;;;;;;;5.44;84.07;100742.03;1789945;79;21130;-70
2021/12/19 10:11:32;;;;;;;8.83;2.55;;;;;;;5.45;84.07;100740.23;1757272;80;21006;-70
2021/12/19 10:13:57;;;;;;;12.15;3.65;;;;;;;5.44;84.09;100747.31;1793009;79;21463;-70
2021/12/19 10:16:28;;;;;;;16.23;7.20;;;;;;;5.44;84.10;100728.80;1788856;79;21503;-70
2021/12/19 10:18:57;;;;;;;8.18;3.65;;;;;;;5.45;84.10;100725.68;1792855;79;21019;-70
2021/12/19 10:21:23;;;;;;;24.70;9.30;;;;;;;5.46;84.11;100718.08;1802457;79;21906;-70
2021/12/19 10:23:49;;;;;;;7.97;3.22;;;;;;;5.48;84.13;100720.97;1803069;79;20884;-70
2021/12/19 10:26:15;;;;;;;10.43;3.87;;;;;;;5.50;84.15;100720.83;1791257;79;20944;-70
2021/12/19 10:28:57;;;;;;;11.45;4.08;;;;;;;5.51;84.15;100703.52;1795140;79;20915;-70
2021/12/19 10:31:25;;;;;;;8.00;2.77;;;;;;;5.53;84.14;100704.20;1772729;80;21567;-70
2021/12/19 10:33:51;;;;;;;9.55;3.80;;;;;;;5.52;84.16;100699.88;1788614;80;21115;-70
2021/12/19 10:36:18;;;;;;;13.58;4.33;;;;;;;5.53;84.16;100693.63;1761611;80;21037;-70
2021/12/19 10:38:52;;;;;;;8.45;2.83;;;;;;;5.54;84.16;100691.34;1775569;80;21540;-70
2021/12/19 10:41:30;;;;;;;11.57;4.08;;;;;;;5.56;84.16;100689.06;1783890;80;21006;-70
2021/12/19 10:44:06;;;;;;;14.40;5.25;;;;;;;5.54;84.17;100684.73;1788506;80;21007;-71
2021/12/19 10:46:31;;;;;;;27.22;12.82;;;;;;;5.52;84.19;100682.69;1788554;80;21860;-71
2021/12/19 10:48:58;;;;;;;41.60;19.62;;;;;;;5.50;84.17;100677.18;1753553;81;21027;-70
2021/12/19 10:51:25;;;;;;;20.37;6.78;;;;;;;5.49;84.19;100675.02;1715717;83;21018;-71
2021/12/19 10:53:53;;;;;;;27.82;10.72;;;;;;;5.49;84.19;100668.41;1734507;82;21063;-71
2021/12/19 10:56:31;;;;;;;16.70;6.65;;;;;;;5.51;84.21;100669.12;1730674;82;21077;-71
2021/12/19 10:59:06;;;;;;;22.65;8.90;;;;;;;5.49;84.21;100665.77;1740897;82;21845;-71
2021/12/19 11:01:44;;;;;;;39.00;15.35;;;;;;;5.48;84.22;100661.94;1732851;82;21055;-70
2021/12/19 11:04:12;;;;;;;36.00;12.23;;;;;;;5.46;84.24;100652.80;1763967;80;21003;-70
2021/12/19 11:06:43;;;;;;;28.77;9.38;;;;;;;5.43;84.23;100657.03;1769448;80;21030;-71
2021/12/19 11:09:32;;;;;;;18.37;7.30;;;;;;;5.41;84.28;100651.53;1781414;80;21046;-70
2021/12/19 11:12:05;;;;;;;20.30;9.10;;;;;;;5.38;84.30;100640.70;1781545;80;21179;-71
2021/12/19 11:14:39;;;;;;;47.83;17.87;;;;;;;5.36;84.30;100636.05;1780633;80;21546;-71
2021/12/19 11:17:21;;;;;;;45.33;17.37;;;;;;;5.35;84.33;100633.04;1780412;80;21582;-71
2021/12/19 11:19:45;;;;;;;29.90;10.23;;;;;;;5.35;84.34;100633.04;1779091;80;21518;-71
2021/12/19 11:22:12;;;;;;;12.05;6.03;;;;;;;5.36;84.36;100628.11;1780399;80;21551;-71
2021/12/19 11:24:37;;;;;;;16.60;6.70;;;;;;;5.37;84.37;100629.80;1780842;80;21502;-71
2021/12/19 11:27:06;;;;;;;25.75;10.35;;;;;;;5.36;84.38;100637.37;1780481;80;20967;-70
2021/12/19 11:29:32;;;;;;;18.17;6.15;;;;;;;5.36;84.40;100633.41;1746494;82;21070;-71
2021/12/19 11:32:04;;;;;;;15.98;4.33;;;;;;;5.35;84.43;100629.08;1781446;80;20896;-71
2021/12/19 11:34:58;;;;;;;15.48;5.20;;;;;;;5.35;84.45;100627.75;1771379;80;21062;-71
2021/12/19 11:37:34;;;;;;;20.43;8.05;;;;;;;5.34;84.47;100614.20;1708285;82;21493;-71
2021/12/19 11:40:00;;;;;;;24.30;8.13;;;;;;;5.33;84.50;100604.58;1739605;81;21019;-71
2021/12/19 11:42:34;;;;;;;17.87;6.60;;;;;;;5.30;84.51;100598.72;1741079;80;20924;-71
2021/12/19 11:47:50;;;;;;;24.70;8.00;;;;;;;5.29;84.57;100587.78;1742880;80;21023;-71
2021/12/19 11:50:32;;;;;;;19.05;7.12;;;;;;;5.27;84.60;100590.57;1746540;80;22106;-70
2021/12/19 11:53:13;;;;;;;15.80;5.17;;;;;;;5.26;84.65;100580.95;1780293;80;20994;-71
2021/12/19 11:55:46;;;;;;;15.28;5.92;;;;;;;5.28;84.66;100572.39;1780933;80;21073;-70
2021/12/19 11:58:27;;;;;;;17.75;7.47;;;;;;;5.26;84.74;100570.38;1749669;80;21074;-70
2021/12/19 12:01:03;;;;;;;9.25;4.53;;;;;;;5.25;84.76;100569.17;1741335;82;21050;-71
2021/12/19 12:03:42;;;;;;;8.95;3.30;;;;;;;5.24;84.81;100572.81;1741724;82;21172;-71
2021/12/19 12:06:23;;;;;;;13.78;5.95;;;;;;;5.23;84.87;100558.75;1742857;80;21011;-71
2021/12/19 12:09:23;;;;;;;11.95;6.28;;;;;;;5.21;84.90;100560.67;1747305;79;21055;-71
2021/12/19 12:12:09;;;;;;;15.38;6.60;;;;;;;5.20;84.98;100545.80;1751008;79;21554;-71
2021/12/19 12:14:39;;;;;;;15.78;7.22;;;;;;;5.19;85.03;100552.53;1759187;79;21067;-71
2021/12/19 12:17:21;;;;;;;13.55;6.35;;;;;;;5.17;85.08;100546.07;1781281;80;21405;-70
2021/12/19 12:19:55;;;;;;;11.78;5.62;;;;;;;5.16;85.14;100540.42;1760774;80;21547;-71
2021/12/19 12:22:38;;;;;;;;;;;;;;;5.16;85.19;100539.58;1778920;80;21061;-71
2021/12/19 12:25:12;;;;;;;10.45;5.42;;;;;;;5.17;85.26;100532.02;1758199;79;20183;-71
2021/12/19 12:27:45;;;;;;;14.95;5.42;;;;;;;5.17;85.34;100520.95;1780182;79;21509;-71
2021/12/19 12:30:17;;;;;;;23.00;10.20;;;;;;;5.19;85.41;100521.65;1792196;79;21692;-71